Tecumseh — WTW9257 — position and weather

sailwx.info

Track history (hours):
 
Tides and Currents Weather Stations Pressure Air Temp Water Temp Dewpoint Dewpoint Depression Visibility Wind Speed Wind Dir Waves Ship Positions

Tecumseh

Owner: SAUSE BROS INC, COOS BAY, OR. More information available from US FCC via Universal Licensing System and Coast Guard Vessel Documentation Center.

Last reported at 2016-Feb-10 08:33 UTC. Time now 2016-Feb-10 08:47 UTC.
Position N 33°44' W 118°14'.

Length 90 m; draft 4.9 m.

Type: Towing. MMSI: 367133160.

Date/timePositionNaut miles runAvg speedWind from/ knotsBaromVisibWave heightAir tempDewpointWater temp
2016-Feb-10 08:33N 33°44' W 118°14'2 0.4
2016-Feb-10 02:13N 33°45' W 118°16'1 0.5
2016-Feb-10 01:14N 33°46' W 118°16'1 1.4
2016-Feb-10 00:31N 33°45' W 118°16'1 0.1
2016-Feb-09 20:08N 33°44' W 118°16'0 0.0
2016-Feb-09 19:13N 33°44' W 118°16'0 0.0
2016-Feb-09 17:07N 33°44' W 118°16'0 0.0
2016-Feb-09 16:32N 33°44' W 118°16'1 0.8
2016-Feb-09 15:12N 33°45' W 118°16'0 0.7
2016-Feb-09 14:33N 33°46' W 118°16'158 5.2
2016-Feb-08 08:04N 34°41' W 121°15'6 7.5
2016-Feb-08 07:19N 34°45' W 121°19'6 7.5
2016-Feb-08 06:33N 34°50' W 121°22'8 7.9
2016-Feb-08 05:33N 34°57' W 121°28'152 8.0
2016-Feb-07 10:26N 37°09' W 123°01'7 7.9
2016-Feb-07 09:32N 37°16' W 123°02'8 8.0
2016-Feb-07 08:33N 37°24' W 123°04'8 7.9
2016-Feb-07 07:33N 37°32' W 123°04'7 7.0
2016-Feb-07 06:33N 37°37' W 122°59'7 7.3
2016-Feb-07 05:33N 37°41' W 122°51'7 6.8
2016-Feb-07 04:32N 37°45' W 122°44'7 7.0
2016-Feb-07 03:32N 37°47' W 122°35'6 6.3
2016-Feb-07 02:33N 37°49' W 122°28'5 4.9
2016-Feb-07 01:33N 37°54' W 122°26'0 0.0
2016-Feb-07 00:33N 37°54' W 122°26'0 0.0
2016-Feb-06 23:33N 37°54' W 122°26'0 0.0
2016-Feb-06 22:33N 37°54' W 122°26'0 0.0
2016-Feb-06 21:33N 37°54' W 122°26'0 0.0
2016-Feb-06 20:33N 37°54' W 122°26'2 1.6
2016-Feb-06 19:33N 37°55' W 122°25'0 0.2
2016-Feb-06 18:33N 37°55' W 122°25'0 0.0
2016-Feb-06 17:33N 37°55' W 122°25'0 0.0
2016-Feb-06 16:33N 37°55' W 122°25'0 0.0
2016-Feb-06 15:33N 37°55' W 122°25'0 0.0
2016-Feb-06 14:33N 37°55' W 122°25'0 0.0
2016-Feb-06 13:33N 37°55' W 122°25'0 0.0
2016-Feb-06 12:33N 37°55' W 122°25'0 0.0
2016-Feb-06 11:33N 37°55' W 122°25'0 0.0
2016-Feb-06 10:33N 37°55' W 122°25'0 0.0
2016-Feb-06 09:33N 37°55' W 122°25'0 0.0
2016-Feb-06 08:33N 37°55' W 122°25'0 0.0
2016-Feb-06 07:33N 37°55' W 122°25'0 0.0
2016-Feb-06 06:33N 37°55' W 122°25'0 0.0
2016-Feb-06 05:33N 37°55' W 122°25'0 0.0
2016-Feb-06 04:33N 37°55' W 122°25'0 0.0
2016-Feb-06 03:33N 37°55' W 122°25'0 0.0
2016-Feb-06 02:32N 37°55' W 122°25'0 0.0
2016-Feb-06 01:32N 37°55' W 122°25'0 0.0
2016-Feb-06 00:33N 37°55' W 122°25'0 0.3
2016-Feb-05 23:33N 37°55' W 122°25'1 1.3
2016-Feb-05 22:33N 37°54' W 122°26'0 0.0
2016-Feb-05 21:33N 37°54' W 122°26'1 0.7
2016-Feb-05 20:33N 37°55' W 122°26'0 0.1
2016-Feb-05 19:33N 37°55' W 122°26'0 0.0
2016-Feb-05 18:33N 37°55' W 122°26'0 0.0
2016-Feb-05 17:33N 37°55' W 122°26'0 0.0
2016-Feb-05 16:27N 37°55' W 122°26'0 0.0
2016-Feb-05 15:33N 37°55' W 122°26'0 0.0
2016-Feb-05 14:30N 37°55' W 122°26'0 0.1
2016-Feb-05 13:33N 37°55' W 122°26'0 0.1
2016-Feb-05 12:33N 37°55' W 122°26'0 0.0
2016-Feb-05 11:33N 37°55' W 122°26'0 0.0
2016-Feb-05 10:33N 37°55' W 122°26'0 0.0
2016-Feb-05 09:33N 37°55' W 122°26'0 0.0
2016-Feb-05 08:33N 37°55' W 122°26'0 0.0
2016-Feb-05 07:21N 37°55' W 122°26'0 0.0
2016-Feb-05 06:33N 37°55' W 122°26'0 0.0
2016-Feb-05 05:33N 37°55' W 122°26'0 0.0
2016-Feb-05 04:33N 37°55' W 122°26'0 0.1
2016-Feb-05 03:33N 37°55' W 122°26'0 0.1
2016-Feb-05 02:33N 37°55' W 122°26'0 0.1
2016-Feb-05 01:30N 37°55' W 122°26'0 0.0
2016-Feb-05 00:33N 37°55' W 122°26'0 0.0
2016-Feb-04 23:33N 37°55' W 122°26'0 0.0
2016-Feb-04 22:33N 37°55' W 122°26'0 0.0
2016-Feb-04 21:33N 37°55' W 122°26'0 0.0
2016-Feb-04 20:33N 37°55' W 122°26'0 0.0
2016-Feb-04 19:33N 37°55' W 122°26'0 0.1
2016-Feb-04 18:33N 37°55' W 122°26'6 5.6
2016-Feb-04 17:34N 37°49' W 122°25'6 6.4
2016-Feb-04 16:33N 37°48' W 122°32'7 7.1
2016-Feb-04 15:33N 37°45' W 122°40'7 6.6
2016-Feb-04 14:33N 37°40' W 122°47'6 5.9
2016-Feb-04 13:33N 37°37' W 122°53'7 6.7
2016-Feb-04 12:33N 37°33' W 123°00'6 6.0
2016-Feb-04 11:31N 37°27' W 123°02'  
2016-Feb-02 04:18N 33°43' W 118°11'3 3.5
2016-Feb-02 03:34N 33°45' W 118°13'1 1.2
2016-Feb-02 02:34N 33°46' W 118°13'0 0.4
2016-Feb-02 01:34N 33°46' W 118°13'0 0.0
2016-Feb-02 00:32N 33°46' W 118°13'0 0.0
2016-Feb-01 22:17N 33°46' W 118°13'0 0.0
2016-Feb-01 21:29N 33°46' W 118°13'0 0.0
2016-Feb-01 20:29N 33°46' W 118°13'0 0.0
2016-Feb-01 19:32N 33°46' W 118°13'0 0.0
2016-Feb-01 18:32N 33°46' W 118°13'0 0.0
2016-Feb-01 17:32N 33°46' W 118°13'0 0.1
2016-Feb-01 16:26N 33°46' W 118°13'0 0.1
2016-Feb-01 15:31N 33°46' W 118°13'0 0.0
2016-Feb-01 14:31N 33°46' W 118°13'0 0.0
2016-Feb-01 13:31N 33°46' W 118°13'0 0.0
2016-Feb-01 12:31N 33°46' W 118°13'0 0.0
2016-Feb-01 11:28N 33°46' W 118°13'0 0.0
2016-Feb-01 10:31N 33°46' W 118°13'0 0.0
2016-Feb-01 09:31N 33°46' W 118°13'0 0.0
2016-Feb-01 08:31N 33°46' W 118°13'0 0.4
2016-Feb-01 07:31N 33°46' W 118°13'0 0.0
2016-Feb-01 06:31N 33°46' W 118°13'0 0.0
2016-Feb-01 05:31N 33°46' W 118°13'0 0.0
2016-Feb-01 04:31N 33°46' W 118°13'0 0.0
2016-Feb-01 03:28N 33°46' W 118°13'0 0.0
2016-Feb-01 02:25N 33°46' W 118°13'0 0.0
2016-Feb-01 01:31N 33°46' W 118°13'0 0.0
2016-Feb-01 00:28N 33°46' W 118°13'0 0.0
2016-Jan-31 23:31N 33°46' W 118°13'0 0.0
2016-Jan-31 22:31N 33°46' W 118°13'0 0.0
2016-Jan-31 21:31N 33°46' W 118°13'0 0.0
2016-Jan-31 20:34N 33°46' W 118°13'0 0.4
2016-Jan-31 19:33N 33°46' W 118°13'0 0.0
2016-Jan-31 18:23N 33°46' W 118°13'0 0.0
2016-Jan-31 17:29N 33°46' W 118°13'0 0.0
2016-Jan-31 16:32N 33°46' W 118°13'0 0.0
2016-Jan-31 15:17N 33°46' W 118°13'0 0.0
2016-Jan-31 14:26N 33°46' W 118°13'0 0.0
2016-Jan-31 13:32N 33°46' W 118°13'0 0.0
2016-Jan-31 12:32N 33°46' W 118°13'0 0.0
2016-Jan-31 11:32N 33°46' W 118°13'0 0.0
2016-Jan-31 10:32N 33°46' W 118°13'0 0.0
2016-Jan-31 09:32N 33°46' W 118°13'  
Track history (hours):
 
Tides and Currents Weather Stations Pressure Air Temp Water Temp Dewpoint Dewpoint Depression Visibility Wind Speed Wind Dir Waves Ship Positions

Tecumseh

Owner: SAUSE BROS INC, COOS BAY, OR. More information available from US FCC via Universal Licensing System and Coast Guard Vessel Documentation Center.

Last reported at 2016-Feb-10 08:33 UTC. Time now 2016-Feb-10 08:47 UTC.
Position N 33°44' W 118°14'.

Length 90 m; draft 4.9 m.

Type: Towing. MMSI: 367133160.

Date/timePositionNaut miles runAvg speedWind from/ knotsBaromVisibWave heightAir tempDewpointWater temp
2016-Feb-10 08:33N 33°44' W 118°14'2 0.4
2016-Feb-10 02:13N 33°45' W 118°16'1 0.5
2016-Feb-10 01:14N 33°46' W 118°16'1 1.4
2016-Feb-10 00:31N 33°45' W 118°16'1 0.1
2016-Feb-09 20:08N 33°44' W 118°16'0 0.0
2016-Feb-09 19:13N 33°44' W 118°16'0 0.0
2016-Feb-09 17:07N 33°44' W 118°16'0 0.0
2016-Feb-09 16:32N 33°44' W 118°16'1 0.8
2016-Feb-09 15:12N 33°45' W 118°16'0 0.7
2016-Feb-09 14:33N 33°46' W 118°16'158 5.2
2016-Feb-08 08:04N 34°41' W 121°15'6 7.5
2016-Feb-08 07:19N 34°45' W 121°19'6 7.5
2016-Feb-08 06:33N 34°50' W 121°22'8 7.9
2016-Feb-08 05:33N 34°57' W 121°28'152 8.0
2016-Feb-07 10:26N 37°09' W 123°01'7 7.9
2016-Feb-07 09:32N 37°16' W 123°02'8 8.0
2016-Feb-07 08:33N 37°24' W 123°04'8 7.9
2016-Feb-07 07:33N 37°32' W 123°04'7 7.0
2016-Feb-07 06:33N 37°37' W 122°59'7 7.3
2016-Feb-07 05:33N 37°41' W 122°51'7 6.8
2016-Feb-07 04:32N 37°45' W 122°44'7 7.0
2016-Feb-07 03:32N 37°47' W 122°35'6 6.3
2016-Feb-07 02:33N 37°49' W 122°28'5 4.9
2016-Feb-07 01:33N 37°54' W 122°26'0 0.0
2016-Feb-07 00:33N 37°54' W 122°26'0 0.0
2016-Feb-06 23:33N 37°54' W 122°26'0 0.0
2016-Feb-06 22:33N 37°54' W 122°26'0 0.0
2016-Feb-06 21:33N 37°54' W 122°26'0 0.0
2016-Feb-06 20:33N 37°54' W 122°26'2 1.6
2016-Feb-06 19:33N 37°55' W 122°25'0 0.2
2016-Feb-06 18:33N 37°55' W 122°25'0 0.0
2016-Feb-06 17:33N 37°55' W 122°25'0 0.0
2016-Feb-06 16:33N 37°55' W 122°25'0 0.0
2016-Feb-06 15:33N 37°55' W 122°25'0 0.0
2016-Feb-06 14:33N 37°55' W 122°25'0 0.0
2016-Feb-06 13:33N 37°55' W 122°25'0 0.0
2016-Feb-06 12:33N 37°55' W 122°25'0 0.0
2016-Feb-06 11:33N 37°55' W 122°25'0 0.0
2016-Feb-06 10:33N 37°55' W 122°25'0 0.0
2016-Feb-06 09:33N 37°55' W 122°25'0 0.0
2016-Feb-06 08:33N 37°55' W 122°25'0 0.0
2016-Feb-06 07:33N 37°55' W 122°25'0 0.0
2016-Feb-06 06:33N 37°55' W 122°25'0 0.0
2016-Feb-06 05:33N 37°55' W 122°25'0 0.0
2016-Feb-06 04:33N 37°55' W 122°25'0 0.0
2016-Feb-06 03:33N 37°55' W 122°25'0 0.0
2016-Feb-06 02:32N 37°55' W 122°25'0 0.0
2016-Feb-06 01:32N 37°55' W 122°25'0 0.0
2016-Feb-06 00:33N 37°55' W 122°25'0 0.3
2016-Feb-05 23:33N 37°55' W 122°25'1 1.3
2016-Feb-05 22:33N 37°54' W 122°26'0 0.0
2016-Feb-05 21:33N 37°54' W 122°26'1 0.7
2016-Feb-05 20:33N 37°55' W 122°26'0 0.1
2016-Feb-05 19:33N 37°55' W 122°26'0 0.0
2016-Feb-05 18:33N 37°55' W 122°26'0 0.0
2016-Feb-05 17:33N 37°55' W 122°26'0 0.0
2016-Feb-05 16:27N 37°55' W 122°26'0 0.0
2016-Feb-05 15:33N 37°55' W 122°26'0 0.0
2016-Feb-05 14:30N 37°55' W 122°26'0 0.1
2016-Feb-05 13:33N 37°55' W 122°26'0 0.1
2016-Feb-05 12:33N 37°55' W 122°26'0 0.0
2016-Feb-05 11:33N 37°55' W 122°26'0 0.0
2016-Feb-05 10:33N 37°55' W 122°26'0 0.0
2016-Feb-05 09:33N 37°55' W 122°26'0 0.0
2016-Feb-05 08:33N 37°55' W 122°26'0 0.0
2016-Feb-05 07:21N 37°55' W 122°26'0 0.0
2016-Feb-05 06:33N 37°55' W 122°26'0 0.0
2016-Feb-05 05:33N 37°55' W 122°26'0 0.0
2016-Feb-05 04:33N 37°55' W 122°26'0 0.1
2016-Feb-05 03:33N 37°55' W 122°26'0 0.1
2016-Feb-05 02:33N 37°55' W 122°26'0 0.1
2016-Feb-05 01:30N 37°55' W 122°26'0 0.0
2016-Feb-05 00:33N 37°55' W 122°26'0 0.0
2016-Feb-04 23:33N 37°55' W 122°26'0 0.0
2016-Feb-04 22:33N 37°55' W 122°26'0 0.0
2016-Feb-04 21:33N 37°55' W 122°26'0 0.0
2016-Feb-04 20:33N 37°55' W 122°26'0 0.0
2016-Feb-04 19:33N 37°55' W 122°26'0 0.1
2016-Feb-04 18:33N 37°55' W 122°26'6 5.6
2016-Feb-04 17:34N 37°49' W 122°25'6 6.4
2016-Feb-04 16:33N 37°48' W 122°32'7 7.1
2016-Feb-04 15:33N 37°45' W 122°40'7 6.6
2016-Feb-04 14:33N 37°40' W 122°47'6 5.9
2016-Feb-04 13:33N 37°37' W 122°53'7 6.7
2016-Feb-04 12:33N 37°33' W 123°00'6 6.0
2016-Feb-04 11:31N 37°27' W 123°02'  
2016-Feb-02 04:18N 33°43' W 118°11'3 3.5
2016-Feb-02 03:34N 33°45' W 118°13'1 1.2
2016-Feb-02 02:34N 33°46' W 118°13'0 0.4
2016-Feb-02 01:34N 33°46' W 118°13'0 0.0
2016-Feb-02 00:32N 33°46' W 118°13'0 0.0
2016-Feb-01 22:17N 33°46' W 118°13'0 0.0
2016-Feb-01 21:29N 33°46' W 118°13'0 0.0
2016-Feb-01 20:29N 33°46' W 118°13'0 0.0
2016-Feb-01 19:32N 33°46' W 118°13'0 0.0
2016-Feb-01 18:32N 33°46' W 118°13'0 0.0
2016-Feb-01 17:32N 33°46' W 118°13'0 0.1
2016-Feb-01 16:26N 33°46' W 118°13'0 0.1
2016-Feb-01 15:31N 33°46' W 118°13'0 0.0
2016-Feb-01 14:31N 33°46' W 118°13'0 0.0
2016-Feb-01 13:31N 33°46' W 118°13'0 0.0
2016-Feb-01 12:31N 33°46' W 118°13'0 0.0
2016-Feb-01 11:28N 33°46' W 118°13'0 0.0
2016-Feb-01 10:31N 33°46' W 118°13'0 0.0
2016-Feb-01 09:31N 33°46' W 118°13'0 0.0
2016-Feb-01 08:31N 33°46' W 118°13'0 0.4
2016-Feb-01 07:31N 33°46' W 118°13'0 0.0
2016-Feb-01 06:31N 33°46' W 118°13'0 0.0
2016-Feb-01 05:31N 33°46' W 118°13'0 0.0
2016-Feb-01 04:31N 33°46' W 118°13'0 0.0
2016-Feb-01 03:28N 33°46' W 118°13'0 0.0
2016-Feb-01 02:25N 33°46' W 118°13'0 0.0
2016-Feb-01 01:31N 33°46' W 118°13'0 0.0
2016-Feb-01 00:28N 33°46' W 118°13'0 0.0
2016-Jan-31 23:31N 33°46' W 118°13'0 0.0
2016-Jan-31 22:31N 33°46' W 118°13'0 0.0
2016-Jan-31 21:31N 33°46' W 118°13'0 0.0
2016-Jan-31 20:34N 33°46' W 118°13'0 0.4
2016-Jan-31 19:33N 33°46' W 118°13'0 0.0
2016-Jan-31 18:23N 33°46' W 118°13'0 0.0
2016-Jan-31 17:29N 33°46' W 118°13'0 0.0
2016-Jan-31 16:32N 33°46' W 118°13'0 0.0
2016-Jan-31 15:17N 33°46' W 118°13'0 0.0
2016-Jan-31 14:26N 33°46' W 118°13'0 0.0
2016-Jan-31 13:32N 33°46' W 118°13'0 0.0
2016-Jan-31 12:32N 33°46' W 118°13'0 0.0
2016-Jan-31 11:32N 33°46' W 118°13'0 0.0
2016-Jan-31 10:32N 33°46' W 118°13'0 0.0
2016-Jan-31 09:32N 33°46' W 118°13'  

Dump ship's entire track history